sensor_id;sensor_type;location;lat;lon;timestamp;P1;durP1;ratioP1;P2;durP2;ratioP2
19679;SDS011;9989;48.962;9.182;2022-07-19T00:01:28;8.43;;;3.43;;
19679;SDS011;9989;48.962;9.182;2022-07-19T00:03:53;10.13;;;4.17;;
19679;SDS011;9989;48.962;9.182;2022-07-19T00:06:20;10.50;;;3.57;;
19679;SDS011;9989;48.962;9.182;2022-07-19T00:08:46;11.23;;;3.30;;
19679;SDS011;9989;48.962;9.182;2022-07-19T00:11:12;6.97;;;3.47;;
19679;SDS011;9989;48.962;9.182;2022-07-19T00:13:37;8.03;;;3.60;;
19679;SDS011;9989;48.962;9.182;2022-07-19T00:16:03;10.77;;;3.47;;
19679;SDS011;9989;48.962;9.182;2022-07-19T00:18:28;10.70;;;3.37;;
19679;SDS011;9989;48.962;9.182;2022-07-19T00:20:54;7.30;;;3.73;;
19679;SDS011;9989;48.962;9.182;2022-07-19T00:23:19;6.63;;;3.20;;
19679;SDS011;9989;48.962;9.182;2022-07-19T00:25:45;9.77;;;3.43;;
19679;SDS011;9989;48.962;9.182;2022-07-19T00:28:11;11.00;;;4.10;;
19679;SDS011;9989;48.962;9.182;2022-07-19T00:30:36;9.10;;;3.97;;
19679;SDS011;9989;48.962;9.182;2022-07-19T00:33:02;7.97;;;3.80;;
19679;SDS011;9989;48.962;9.182;2022-07-19T00:35:29;10.87;;;4.33;;
19679;SDS011;9989;48.962;9.182;2022-07-19T00:37:55;9.50;;;3.87;;
19679;SDS011;9989;48.962;9.182;2022-07-19T00:40:23;7.60;;;3.60;;
19679;SDS011;9989;48.962;9.182;2022-07-19T00:42:50;10.00;;;3.80;;
19679;SDS011;9989;48.962;9.182;2022-07-19T00:45:16;8.87;;;3.80;;
19679;SDS011;9989;48.962;9.182;2022-07-19T00:47:42;7.07;;;4.17;;
19679;SDS011;9989;48.962;9.182;2022-07-19T00:50:07;8.90;;;4.50;;
19679;SDS011;9989;48.962;9.182;2022-07-19T00:52:33;10.20;;;4.23;;
19679;SDS011;9989;48.962;9.182;2022-07-19T00:55:00;7.23;;;3.50;;
19679;SDS011;9989;48.962;9.182;2022-07-19T00:57:25;7.67;;;3.07;;
19679;SDS011;9989;48.962;9.182;2022-07-19T00:59:52;7.07;;;3.67;;
19679;SDS011;9989;48.962;9.182;2022-07-19T01:02:19;8.13;;;3.90;;
19679;SDS011;9989;48.962;9.182;2022-07-19T01:04:46;10.60;;;4.50;;
19679;SDS011;9989;48.962;9.182;2022-07-19T01:07:12;9.20;;;4.00;;
19679;SDS011;9989;48.962;9.182;2022-07-19T01:09:38;9.27;;;4.50;;
19679;SDS011;9989;48.962;9.182;2022-07-19T01:12:05;7.30;;;4.07;;
19679;SDS011;9989;48.962;9.182;2022-07-19T01:14:32;9.90;;;4.40;;
19679;SDS011;9989;48.962;9.182;2022-07-19T01:17:00;8.27;;;3.70;;
19679;SDS011;9989;48.962;9.182;2022-07-19T01:19:26;11.17;;;4.17;;
19679;SDS011;9989;48.962;9.182;2022-07-19T01:21:52;9.57;;;4.50;;
19679;SDS011;9989;48.962;9.182;2022-07-19T01:24:17;7.40;;;3.73;;
19679;SDS011;9989;48.962;9.182;2022-07-19T01:26:43;7.30;;;3.67;;
19679;SDS011;9989;48.962;9.182;2022-07-19T01:29:13;10.13;;;4.30;;
19679;SDS011;9989;48.962;9.182;2022-07-19T01:31:40;6.63;;;3.40;;
19679;SDS011;9989;48.962;9.182;2022-07-19T01:34:05;7.30;;;3.73;;
19679;SDS011;9989;48.962;9.182;2022-07-19T01:36:31;7.17;;;3.60;;
19679;SDS011;9989;48.962;9.182;2022-07-19T01:38:57;9.53;;;3.93;;
19679;SDS011;9989;48.962;9.182;2022-07-19T01:41:22;10.77;;;4.33;;
19679;SDS011;9989;48.962;9.182;2022-07-19T01:43:48;9.80;;;4.70;;
19679;SDS011;9989;48.962;9.182;2022-07-19T01:46:13;9.00;;;4.40;;
19679;SDS011;9989;48.962;9.182;2022-07-19T01:48:39;8.07;;;3.90;;
19679;SDS011;9989;48.962;9.182;2022-07-19T01:51:04;7.67;;;4.07;;
19679;SDS011;9989;48.962;9.182;2022-07-19T01:53:30;8.83;;;4.07;;
19679;SDS011;9989;48.962;9.182;2022-07-19T01:55:56;8.67;;;3.70;;
19679;SDS011;9989;48.962;9.182;2022-07-19T01:58:21;9.90;;;4.47;;
19679;SDS011;9989;48.962;9.182;2022-07-19T02:00:47;7.50;;;4.40;;
19679;SDS011;9989;48.962;9.182;2022-07-19T02:03:12;10.13;;;5.30;;
19679;SDS011;9989;48.962;9.182;2022-07-19T02:05:38;9.53;;;5.10;;
19679;SDS011;9989;48.962;9.182;2022-07-19T02:08:04;10.03;;;5.00;;
19679;SDS011;9989;48.962;9.182;2022-07-19T02:10:29;8.57;;;5.10;;
19679;SDS011;9989;48.962;9.182;2022-07-19T02:12:55;8.30;;;5.27;;
19679;SDS011;9989;48.962;9.182;2022-07-19T02:15:21;8.80;;;5.23;;
19679;SDS011;9989;48.962;9.182;2022-07-19T02:17:46;8.60;;;4.87;;
19679;SDS011;9989;48.962;9.182;2022-07-19T02:20:12;9.33;;;4.80;;
19679;SDS011;9989;48.962;9.182;2022-07-19T02:22:38;12.10;;;5.33;;
19679;SDS011;9989;48.962;9.182;2022-07-19T02:25:03;10.70;;;4.63;;
19679;SDS011;9989;48.962;9.182;2022-07-19T02:27:29;8.53;;;4.77;;
19679;SDS011;9989;48.962;9.182;2022-07-19T02:29:55;8.70;;;4.70;;
19679;SDS011;9989;48.962;9.182;2022-07-19T02:32:21;8.43;;;4.73;;
19679;SDS011;9989;48.962;9.182;2022-07-19T02:34:46;7.63;;;4.20;;
19679;SDS011;9989;48.962;9.182;2022-07-19T02:37:12;8.00;;;4.63;;
19679;SDS011;9989;48.962;9.182;2022-07-19T02:39:37;8.13;;;4.20;;
19679;SDS011;9989;48.962;9.182;2022-07-19T02:42:03;8.77;;;4.30;;
19679;SDS011;9989;48.962;9.182;2022-07-19T02:44:28;7.70;;;4.07;;
19679;SDS011;9989;48.962;9.182;2022-07-19T02:46:54;9.80;;;4.10;;
19679;SDS011;9989;48.962;9.182;2022-07-19T02:49:19;12.57;;;4.33;;
19679;SDS011;9989;48.962;9.182;2022-07-19T02:51:46;8.60;;;4.67;;
19679;SDS011;9989;48.962;9.182;2022-07-19T02:54:12;8.00;;;4.30;;
19679;SDS011;9989;48.962;9.182;2022-07-19T02:56:38;8.50;;;4.23;;
19679;SDS011;9989;48.962;9.182;2022-07-19T02:59:04;9.23;;;4.13;;
19679;SDS011;9989;48.962;9.182;2022-07-19T03:01:30;8.27;;;3.80;;
19679;SDS011;9989;48.962;9.182;2022-07-19T03:03:56;7.37;;;3.90;;
19679;SDS011;9989;48.962;9.182;2022-07-19T03:06:22;6.80;;;3.70;;
19679;SDS011;9989;48.962;9.182;2022-07-19T03:08:48;6.23;;;3.13;;
19679;SDS011;9989;48.962;9.182;2022-07-19T03:11:13;11.03;;;3.87;;
19679;SDS011;9989;48.962;9.182;2022-07-19T03:13:39;8.10;;;3.70;;
19679;SDS011;9989;48.962;9.182;2022-07-19T03:16:05;8.90;;;3.80;;
19679;SDS011;9989;48.962;9.182;2022-07-19T03:18:31;6.50;;;3.30;;
19679;SDS011;9989;48.962;9.182;2022-07-19T03:20:57;7.13;;;3.80;;
19679;SDS011;9989;48.962;9.182;2022-07-19T03:23:26;9.43;;;4.10;;
19679;SDS011;9989;48.962;9.182;2022-07-19T03:25:53;6.90;;;3.40;;
19679;SDS011;9989;48.962;9.182;2022-07-19T03:28:18;9.47;;;4.60;;
19679;SDS011;9989;48.962;9.182;2022-07-19T03:30:45;9.40;;;4.23;;
19679;SDS011;9989;48.962;9.182;2022-07-19T03:33:10;8.77;;;4.00;;
19679;SDS011;9989;48.962;9.182;2022-07-19T03:35:40;8.00;;;4.07;;
19679;SDS011;9989;48.962;9.182;2022-07-19T03:38:07;8.67;;;3.90;;
19679;SDS011;9989;48.962;9.182;2022-07-19T03:40:32;9.67;;;4.70;;
19679;SDS011;9989;48.962;9.182;2022-07-19T03:42:58;7.27;;;4.00;;
19679;SDS011;9989;48.962;9.182;2022-07-19T03:45:23;7.53;;;3.90;;
19679;SDS011;9989;48.962;9.182;2022-07-19T03:47:49;9.93;;;4.50;;
19679;SDS011;9989;48.962;9.182;2022-07-19T03:50:15;7.33;;;4.20;;
19679;SDS011;9989;48.962;9.182;2022-07-19T03:52:40;9.67;;;4.40;;
19679;SDS011;9989;48.962;9.182;2022-07-19T03:55:06;8.47;;;4.20;;
19679;SDS011;9989;48.962;9.182;2022-07-19T03:57:32;7.97;;;4.13;;
19679;SDS011;9989;48.962;9.182;2022-07-19T03:59:57;7.17;;;4.00;;
19679;SDS011;9989;48.962;9.182;2022-07-19T04:02:23;7.70;;;4.27;;
19679;SDS011;9989;48.962;9.182;2022-07-19T04:04:48;13.80;;;5.00;;
19679;SDS011;9989;48.962;9.182;2022-07-19T04:07:14;7.80;;;4.47;;
19679;SDS011;9989;48.962;9.182;2022-07-19T04:09:39;9.07;;;4.03;;
19679;SDS011;9989;48.962;9.182;2022-07-19T04:12:05;8.70;;;3.87;;
19679;SDS011;9989;48.962;9.182;2022-07-19T04:14:31;8.43;;;4.23;;
19679;SDS011;9989;48.962;9.182;2022-07-19T04:16:56;7.80;;;3.90;;
19679;SDS011;9989;48.962;9.182;2022-07-19T04:19:22;6.57;;;3.80;;
19679;SDS011;9989;48.962;9.182;2022-07-19T04:21:47;8.17;;;4.23;;
19679;SDS011;9989;48.962;9.182;2022-07-19T04:24:13;9.57;;;3.90;;
19679;SDS011;9989;48.962;9.182;2022-07-19T04:26:38;10.37;;;4.57;;
19679;SDS011;9989;48.962;9.182;2022-07-19T04:29:04;10.77;;;4.20;;
19679;SDS011;9989;48.962;9.182;2022-07-19T04:31:29;9.87;;;4.27;;
19679;SDS011;9989;48.962;9.182;2022-07-19T04:33:55;8.93;;;4.47;;
19679;SDS011;9989;48.962;9.182;2022-07-19T04:36:21;9.77;;;5.00;;
19679;SDS011;9989;48.962;9.182;2022-07-19T04:38:46;9.40;;;4.40;;
19679;SDS011;9989;48.962;9.182;2022-07-19T04:41:12;8.40;;;4.27;;
19679;SDS011;9989;48.962;9.182;2022-07-19T04:43:37;8.23;;;4.50;;
19679;SDS011;9989;48.962;9.182;2022-07-19T04:46:03;7.77;;;4.13;;
19679;SDS011;9989;48.962;9.182;2022-07-19T04:48:29;7.40;;;4.10;;
19679;SDS011;9989;48.962;9.182;2022-07-19T04:50:54;7.50;;;4.07;;
19679;SDS011;9989;48.962;9.182;2022-07-19T04:53:20;9.40;;;4.60;;
19679;SDS011;9989;48.962;9.182;2022-07-19T04:55:45;9.07;;;4.30;;
19679;SDS011;9989;48.962;9.182;2022-07-19T04:58:11;8.50;;;4.23;;
19679;SDS011;9989;48.962;9.182;2022-07-19T05:00:36;9.70;;;4.27;;
19679;SDS011;9989;48.962;9.182;2022-07-19T05:03:02;8.63;;;4.03;;
19679;SDS011;9989;48.962;9.182;2022-07-19T05:05:30;10.77;;;5.00;;
19679;SDS011;9989;48.962;9.182;2022-07-19T05:07:56;8.43;;;4.77;;
19679;SDS011;9989;48.962;9.182;2022-07-19T05:10:21;10.23;;;5.17;;
19679;SDS011;9989;48.962;9.182;2022-07-19T05:12:47;11.27;;;4.73;;
19679;SDS011;9989;48.962;9.182;2022-07-19T05:15:12;8.63;;;4.70;;
19679;SDS011;9989;48.962;9.182;2022-07-19T05:17:38;9.57;;;4.93;;
19679;SDS011;9989;48.962;9.182;2022-07-19T05:20:05;8.57;;;4.80;;
19679;SDS011;9989;48.962;9.182;2022-07-19T05:22:31;10.13;;;5.27;;
19679;SDS011;9989;48.962;9.182;2022-07-19T05:24:57;9.43;;;4.60;;
19679;SDS011;9989;48.962;9.182;2022-07-19T05:27:24;9.97;;;4.67;;
19679;SDS011;9989;48.962;9.182;2022-07-19T05:29:50;9.00;;;4.83;;
19679;SDS011;9989;48.962;9.182;2022-07-19T05:32:15;11.30;;;5.20;;
19679;SDS011;9989;48.962;9.182;2022-07-19T05:34:41;8.77;;;5.03;;
19679;SDS011;9989;48.962;9.182;2022-07-19T05:37:07;10.10;;;5.17;;
19679;SDS011;9989;48.962;9.182;2022-07-19T05:39:33;12.17;;;5.10;;
19679;SDS011;9989;48.962;9.182;2022-07-19T05:41:58;8.00;;;4.43;;
19679;SDS011;9989;48.962;9.182;2022-07-19T05:44:24;11.60;;;5.23;;
19679;SDS011;9989;48.962;9.182;2022-07-19T05:46:49;10.20;;;5.10;;
19679;SDS011;9989;48.962;9.182;2022-07-19T05:49:15;11.53;;;4.87;;
19679;SDS011;9989;48.962;9.182;2022-07-19T05:51:41;8.30;;;5.03;;
19679;SDS011;9989;48.962;9.182;2022-07-19T05:54:07;10.37;;;5.40;;
19679;SDS011;9989;48.962;9.182;2022-07-19T05:56:33;14.60;;;5.40;;
19679;SDS011;9989;48.962;9.182;2022-07-19T05:58:59;13.83;;;5.50;;
19679;SDS011;9989;48.962;9.182;2022-07-19T06:01:26;10.63;;;6.33;;
19679;SDS011;9989;48.962;9.182;2022-07-19T06:03:55;13.20;;;6.17;;
19679;SDS011;9989;48.962;9.182;2022-07-19T06:06:22;8.80;;;5.27;;
19679;SDS011;9989;48.962;9.182;2022-07-19T06:08:49;9.10;;;5.43;;
19679;SDS011;9989;48.962;9.182;2022-07-19T06:11:16;12.77;;;5.90;;
19679;SDS011;9989;48.962;9.182;2022-07-19T06:13:42;11.20;;;5.43;;
19679;SDS011;9989;48.962;9.182;2022-07-19T06:16:09;14.50;;;5.33;;
19679;SDS011;9989;48.962;9.182;2022-07-19T06:18:35;10.23;;;5.03;;
19679;SDS011;9989;48.962;9.182;2022-07-19T06:21:02;11.60;;;6.33;;
19679;SDS011;9989;48.962;9.182;2022-07-19T06:23:29;11.27;;;5.60;;
19679;SDS011;9989;48.962;9.182;2022-07-19T06:25:55;11.40;;;5.67;;
19679;SDS011;9989;48.962;9.182;2022-07-19T06:28:21;12.13;;;5.80;;
19679;SDS011;9989;48.962;9.182;2022-07-19T06:30:47;10.60;;;5.50;;
19679;SDS011;9989;48.962;9.182;2022-07-19T06:33:12;12.90;;;5.73;;
19679;SDS011;9989;48.962;9.182;2022-07-19T06:35:39;16.27;;;5.43;;
19679;SDS011;9989;48.962;9.182;2022-07-19T06:38:05;9.63;;;5.00;;
19679;SDS011;9989;48.962;9.182;2022-07-19T06:40:31;12.53;;;5.47;;
19679;SDS011;9989;48.962;9.182;2022-07-19T06:42:57;9.17;;;5.27;;
19679;SDS011;9989;48.962;9.182;2022-07-19T06:45:22;10.27;;;5.50;;
19679;SDS011;9989;48.962;9.182;2022-07-19T06:47:48;13.10;;;5.63;;
19679;SDS011;9989;48.962;9.182;2022-07-19T06:50:16;8.80;;;5.00;;
19679;SDS011;9989;48.962;9.182;2022-07-19T06:52:42;14.57;;;6.03;;
19679;SDS011;9989;48.962;9.182;2022-07-19T06:55:07;10.27;;;5.23;;
19679;SDS011;9989;48.962;9.182;2022-07-19T06:57:33;14.37;;;6.27;;
19679;SDS011;9989;48.962;9.182;2022-07-19T06:59:59;10.40;;;6.07;;
19679;SDS011;9989;48.962;9.182;2022-07-19T07:02:25;12.17;;;5.00;;
19679;SDS011;9989;48.962;9.182;2022-07-19T07:04:50;10.77;;;5.07;;
19679;SDS011;9989;48.962;9.182;2022-07-19T07:07:16;10.50;;;5.10;;
19679;SDS011;9989;48.962;9.182;2022-07-19T07:09:42;11.13;;;5.50;;
19679;SDS011;9989;48.962;9.182;2022-07-19T07:12:07;11.23;;;4.70;;
19679;SDS011;9989;48.962;9.182;2022-07-19T07:14:33;9.73;;;5.07;;
19679;SDS011;9989;48.962;9.182;2022-07-19T07:17:00;12.83;;;5.73;;
19679;SDS011;9989;48.962;9.182;2022-07-19T07:19:25;9.50;;;5.13;;
19679;SDS011;9989;48.962;9.182;2022-07-19T07:21:51;17.27;;;5.03;;
19679;SDS011;9989;48.962;9.182;2022-07-19T07:24:17;11.63;;;4.63;;
19679;SDS011;9989;48.962;9.182;2022-07-19T07:26:42;15.80;;;5.50;;
19679;SDS011;9989;48.962;9.182;2022-07-19T07:29:08;10.93;;;5.17;;
19679;SDS011;9989;48.962;9.182;2022-07-19T07:31:34;17.53;;;5.03;;
19679;SDS011;9989;48.962;9.182;2022-07-19T07:33:59;13.47;;;5.10;;
19679;SDS011;9989;48.962;9.182;2022-07-19T07:36:25;8.67;;;4.60;;
19679;SDS011;9989;48.962;9.182;2022-07-19T07:38:50;23.83;;;7.57;;
19679;SDS011;9989;48.962;9.182;2022-07-19T07:41:16;25.40;;;5.53;;
19679;SDS011;9989;48.962;9.182;2022-07-19T07:43:41;10.67;;;5.80;;
19679;SDS011;9989;48.962;9.182;2022-07-19T07:46:08;11.97;;;5.13;;
19679;SDS011;9989;48.962;9.182;2022-07-19T07:48:33;13.87;;;5.23;;
19679;SDS011;9989;48.962;9.182;2022-07-19T07:50:59;13.47;;;4.70;;
19679;SDS011;9989;48.962;9.182;2022-07-19T07:53:24;9.50;;;4.83;;
19679;SDS011;9989;48.962;9.182;2022-07-19T07:55:50;10.03;;;4.80;;
19679;SDS011;9989;48.962;9.182;2022-07-19T07:58:15;13.10;;;4.47;;
19679;SDS011;9989;48.962;9.182;2022-07-19T08:00:41;14.60;;;5.60;;
19679;SDS011;9989;48.962;9.182;2022-07-19T08:03:07;9.37;;;5.20;;
19679;SDS011;9989;48.962;9.182;2022-07-19T08:05:32;12.57;;;5.70;;
19679;SDS011;9989;48.962;9.182;2022-07-19T08:07:59;12.83;;;5.67;;
19679;SDS011;9989;48.962;9.182;2022-07-19T08:10:26;9.47;;;5.10;;
19679;SDS011;9989;48.962;9.182;2022-07-19T08:12:53;11.50;;;5.03;;
19679;SDS011;9989;48.962;9.182;2022-07-19T08:15:19;12.00;;;5.47;;
19679;SDS011;9989;48.962;9.182;2022-07-19T08:17:45;10.73;;;4.90;;
19679;SDS011;9989;48.962;9.182;2022-07-19T08:20:11;11.33;;;4.67;;
19679;SDS011;9989;48.962;9.182;2022-07-19T08:22:37;8.30;;;4.53;;
19679;SDS011;9989;48.962;9.182;2022-07-19T08:25:02;10.20;;;4.70;;
19679;SDS011;9989;48.962;9.182;2022-07-19T08:27:28;9.10;;;4.67;;
19679;SDS011;9989;48.962;9.182;2022-07-19T08:29:54;9.80;;;4.33;;
19679;SDS011;9989;48.962;9.182;2022-07-19T08:32:19;7.67;;;4.00;;
19679;SDS011;9989;48.962;9.182;2022-07-19T08:34:45;11.93;;;4.20;;
19679;SDS011;9989;48.962;9.182;2022-07-19T08:37:11;10.50;;;4.57;;
19679;SDS011;9989;48.962;9.182;2022-07-19T08:39:37;9.10;;;4.50;;
19679;SDS011;9989;48.962;9.182;2022-07-19T08:42:02;7.77;;;4.13;;
19679;SDS011;9989;48.962;9.182;2022-07-19T08:44:28;11.67;;;4.40;;
19679;SDS011;9989;48.962;9.182;2022-07-19T08:46:54;9.63;;;4.23;;
19679;SDS011;9989;48.962;9.182;2022-07-19T08:49:20;11.13;;;3.83;;
19679;SDS011;9989;48.962;9.182;2022-07-19T08:51:47;8.70;;;3.83;;
19679;SDS011;9989;48.962;9.182;2022-07-19T08:54:13;8.80;;;3.83;;
19679;SDS011;9989;48.962;9.182;2022-07-19T08:56:39;7.00;;;3.87;;
19679;SDS011;9989;48.962;9.182;2022-07-19T08:59:23;8.57;;;3.60;;
19679;SDS011;9989;48.962;9.182;2022-07-19T09:01:49;9.63;;;4.50;;
19679;SDS011;9989;48.962;9.182;2022-07-19T09:04:19;7.13;;;3.40;;
19679;SDS011;9989;48.962;9.182;2022-07-19T09:06:47;8.93;;;3.43;;
19679;SDS011;9989;48.962;9.182;2022-07-19T09:09:15;6.47;;;3.00;;
19679;SDS011;9989;48.962;9.182;2022-07-19T09:11:43;8.10;;;3.27;;
19679;SDS011;9989;48.962;9.182;2022-07-19T09:14:29;8.03;;;3.60;;
19679;SDS011;9989;48.962;9.182;2022-07-19T09:17:00;8.30;;;3.77;;
19679;SDS011;9989;48.962;9.182;2022-07-19T09:19:42;6.93;;;3.17;;
19679;SDS011;9989;48.962;9.182;2022-07-19T09:22:13;7.73;;;3.13;;
19679;SDS011;9989;48.962;9.182;2022-07-19T09:24:44;7.90;;;3.37;;
19679;SDS011;9989;48.962;9.182;2022-07-19T09:27:13;6.83;;;3.10;;
19679;SDS011;9989;48.962;9.182;2022-07-19T09:29:44;6.67;;;3.20;;
19679;SDS011;9989;48.962;9.182;2022-07-19T09:39:45;7.00;;;3.13;;
19679;SDS011;9989;48.962;9.182;2022-07-19T09:42:13;11.43;;;3.80;;
19679;SDS011;9989;48.962;9.182;2022-07-19T09:44:45;6.50;;;3.30;;
19679;SDS011;9989;48.962;9.182;2022-07-19T09:47:11;5.90;;;3.00;;
19679;SDS011;9989;48.962;9.182;2022-07-19T09:49:37;8.67;;;3.60;;
19679;SDS011;9989;48.962;9.182;2022-07-19T09:52:02;7.70;;;3.57;;
19679;SDS011;9989;48.962;9.182;2022-07-19T09:54:28;6.83;;;3.50;;
19679;SDS011;9989;48.962;9.182;2022-07-19T09:56:55;6.53;;;3.10;;
19679;SDS011;9989;48.962;9.182;2022-07-19T09:59:22;6.30;;;3.10;;
19679;SDS011;9989;48.962;9.182;2022-07-19T10:01:49;7.20;;;3.40;;
19679;SDS011;9989;48.962;9.182;2022-07-19T10:04:18;7.93;;;3.30;;
19679;SDS011;9989;48.962;9.182;2022-07-19T10:06:46;8.90;;;3.40;;
19679;SDS011;9989;48.962;9.182;2022-07-19T10:09:14;6.47;;;3.23;;
19679;SDS011;9989;48.962;9.182;2022-07-19T10:11:41;7.80;;;3.27;;
19679;SDS011;9989;48.962;9.182;2022-07-19T10:14:07;7.80;;;3.40;;
19679;SDS011;9989;48.962;9.182;2022-07-19T10:19:40;6.03;;;3.27;;
19679;SDS011;9989;48.962;9.182;2022-07-19T10:22:09;8.40;;;3.10;;
19679;SDS011;9989;48.962;9.182;2022-07-19T10:24:41;6.10;;;3.37;;
19679;SDS011;9989;48.962;9.182;2022-07-19T10:27:07;6.80;;;3.47;;
19679;SDS011;9989;48.962;9.182;2022-07-19T10:29:33;9.20;;;3.20;;
19679;SDS011;9989;48.962;9.182;2022-07-19T10:32:06;9.47;;;3.33;;
19679;SDS011;9989;48.962;9.182;2022-07-19T10:34:33;8.40;;;3.63;;
19679;SDS011;9989;48.962;9.182;2022-07-19T10:36:59;6.13;;;3.03;;
19679;SDS011;9989;48.962;9.182;2022-07-19T10:45:22;7.97;;;3.70;;
19679;SDS011;9989;48.962;9.182;2022-07-19T10:50:07;11.53;;;3.80;;
19679;SDS011;9989;48.962;9.182;2022-07-19T10:52:34;8.83;;;3.60;;
19679;SDS011;9989;48.962;9.182;2022-07-19T10:57:48;9.50;;;4.00;;
19679;SDS011;9989;48.962;9.182;2022-07-19T11:00:16;10.20;;;4.10;;
19679;SDS011;9989;48.962;9.182;2022-07-19T11:02:52;8.23;;;4.10;;
19679;SDS011;9989;48.962;9.182;2022-07-19T11:05:48;9.17;;;4.00;;
19679;SDS011;9989;48.962;9.182;2022-07-19T11:08:14;8.73;;;3.70;;
19679;SDS011;9989;48.962;9.182;2022-07-19T11:10:40;8.20;;;3.43;;
19679;SDS011;9989;48.962;9.182;2022-07-19T11:13:06;8.67;;;3.60;;
19679;SDS011;9989;48.962;9.182;2022-07-19T11:15:32;8.80;;;4.00;;
19679;SDS011;9989;48.962;9.182;2022-07-19T11:17:59;7.27;;;3.87;;
19679;SDS011;9989;48.962;9.182;2022-07-19T11:20:28;7.77;;;3.23;;
19679;SDS011;9989;48.962;9.182;2022-07-19T11:22:56;10.30;;;3.37;;
19679;SDS011;9989;48.962;9.182;2022-07-19T11:25:27;14.63;;;3.53;;
19679;SDS011;9989;48.962;9.182;2022-07-19T11:27:54;8.00;;;3.63;;
19679;SDS011;9989;48.962;9.182;2022-07-19T11:30:21;10.63;;;3.60;;
19679;SDS011;9989;48.962;9.182;2022-07-19T11:32:52;9.00;;;4.07;;
19679;SDS011;9989;48.962;9.182;2022-07-19T11:35:22;14.77;;;3.83;;
19679;SDS011;9989;48.962;9.182;2022-07-19T11:37:51;9.70;;;3.70;;
19679;SDS011;9989;48.962;9.182;2022-07-19T11:40:17;7.17;;;3.50;;
19679;SDS011;9989;48.962;9.182;2022-07-19T11:42:46;8.40;;;3.60;;
19679;SDS011;9989;48.962;9.182;2022-07-19T11:45:22;11.53;;;3.77;;
19679;SDS011;9989;48.962;9.182;2022-07-19T11:47:51;9.77;;;3.30;;
19679;SDS011;9989;48.962;9.182;2022-07-19T11:50:19;10.67;;;3.63;;
19679;SDS011;9989;48.962;9.182;2022-07-19T11:52:52;9.43;;;3.30;;
19679;SDS011;9989;48.962;9.182;2022-07-19T11:55:23;8.97;;;3.60;;
19679;SDS011;9989;48.962;9.182;2022-07-19T11:57:53;8.00;;;3.53;;
19679;SDS011;9989;48.962;9.182;2022-07-19T12:00:21;7.97;;;3.33;;
19679;SDS011;9989;48.962;9.182;2022-07-19T12:02:57;7.77;;;3.50;;
19679;SDS011;9989;48.962;9.182;2022-07-19T12:05:35;7.33;;;3.20;;
19679;SDS011;9989;48.962;9.182;2022-07-19T12:08:03;8.30;;;3.80;;
19679;SDS011;9989;48.962;9.182;2022-07-19T12:13:05;6.63;;;3.17;;
19679;SDS011;9989;48.962;9.182;2022-07-19T12:15:42;10.83;;;3.60;;
19679;SDS011;9989;48.962;9.182;2022-07-19T12:18:16;11.30;;;3.67;;
19679;SDS011;9989;48.962;9.182;2022-07-19T12:20:43;9.93;;;3.60;;
19679;SDS011;9989;48.962;9.182;2022-07-19T12:23:27;9.77;;;4.00;;
19679;SDS011;9989;48.962;9.182;2022-07-19T12:25:53;7.87;;;3.63;;
19679;SDS011;9989;48.962;9.182;2022-07-19T12:28:28;10.20;;;3.50;;
19679;SDS011;9989;48.962;9.182;2022-07-19T12:31:03;10.87;;;4.00;;
19679;SDS011;9989;48.962;9.182;2022-07-19T12:33:29;8.97;;;3.43;;
19679;SDS011;9989;48.962;9.182;2022-07-19T12:35:55;9.53;;;3.33;;
19679;SDS011;9989;48.962;9.182;2022-07-19T12:38:30;11.00;;;3.07;;
19679;SDS011;9989;48.962;9.182;2022-07-19T12:41:06;11.33;;;3.27;;
19679;SDS011;9989;48.962;9.182;2022-07-19T12:43:34;10.37;;;3.20;;
19679;SDS011;9989;48.962;9.182;2022-07-19T12:46:00;8.20;;;3.33;;
19679;SDS011;9989;48.962;9.182;2022-07-19T12:48:26;8.70;;;3.10;;
19679;SDS011;9989;48.962;9.182;2022-07-19T12:50:52;7.50;;;3.20;;
19679;SDS011;9989;48.962;9.182;2022-07-19T12:53:18;10.47;;;3.67;;
19679;SDS011;9989;48.962;9.182;2022-07-19T12:55:45;6.43;;;3.27;;
19679;SDS011;9989;48.962;9.182;2022-07-19T12:58:13;8.27;;;3.20;;
19679;SDS011;9989;48.962;9.182;2022-07-19T13:01:00;8.40;;;3.63;;
19679;SDS011;9989;48.962;9.182;2022-07-19T13:03:25;6.67;;;3.27;;
19679;SDS011;9989;48.962;9.182;2022-07-19T13:05:51;11.40;;;4.03;;
19679;SDS011;9989;48.962;9.182;2022-07-19T13:08:16;9.17;;;3.60;;
19679;SDS011;9989;48.962;9.182;2022-07-19T13:10:42;10.90;;;3.50;;
19679;SDS011;9989;48.962;9.182;2022-07-19T13:13:09;8.20;;;4.10;;
19679;SDS011;9989;48.962;9.182;2022-07-19T13:15:34;8.33;;;3.70;;
19679;SDS011;9989;48.962;9.182;2022-07-19T13:18:00;8.97;;;3.70;;
19679;SDS011;9989;48.962;9.182;2022-07-19T13:20:26;7.83;;;3.40;;
19679;SDS011;9989;48.962;9.182;2022-07-19T13:22:53;7.07;;;3.40;;
19679;SDS011;9989;48.962;9.182;2022-07-19T13:25:18;7.97;;;3.90;;
19679;SDS011;9989;48.962;9.182;2022-07-19T13:27:44;8.77;;;4.00;;
19679;SDS011;9989;48.962;9.182;2022-07-19T13:30:10;7.43;;;3.70;;
19679;SDS011;9989;48.962;9.182;2022-07-19T13:32:36;8.17;;;4.47;;
19679;SDS011;9989;48.962;9.182;2022-07-19T13:35:01;12.23;;;3.97;;
19679;SDS011;9989;48.962;9.182;2022-07-19T13:37:28;9.67;;;4.10;;
19679;SDS011;9989;48.962;9.182;2022-07-19T13:39:53;11.70;;;4.30;;
19679;SDS011;9989;48.962;9.182;2022-07-19T13:42:19;9.60;;;4.37;;
19679;SDS011;9989;48.962;9.182;2022-07-19T13:44:44;8.30;;;3.97;;
19679;SDS011;9989;48.962;9.182;2022-07-19T13:47:10;11.03;;;4.07;;
19679;SDS011;9989;48.962;9.182;2022-07-19T13:49:36;9.80;;;4.47;;
19679;SDS011;9989;48.962;9.182;2022-07-19T13:52:01;7.73;;;3.77;;
19679;SDS011;9989;48.962;9.182;2022-07-19T13:54:27;7.53;;;4.37;;
19679;SDS011;9989;48.962;9.182;2022-07-19T13:56:53;9.27;;;4.07;;
19679;SDS011;9989;48.962;9.182;2022-07-19T13:59:18;9.40;;;4.23;;
19679;SDS011;9989;48.962;9.182;2022-07-19T14:01:45;10.37;;;4.37;;
19679;SDS011;9989;48.962;9.182;2022-07-19T14:04:11;7.73;;;4.33;;
19679;SDS011;9989;48.962;9.182;2022-07-19T14:06:37;10.93;;;4.67;;
19679;SDS011;9989;48.962;9.182;2022-07-19T14:09:02;8.60;;;4.73;;
19679;SDS011;9989;48.962;9.182;2022-07-19T14:11:28;9.10;;;4.73;;
19679;SDS011;9989;48.962;9.182;2022-07-19T14:13:54;9.37;;;5.23;;
19679;SDS011;9989;48.962;9.182;2022-07-19T14:16:19;11.03;;;4.97;;
19679;SDS011;9989;48.962;9.182;2022-07-19T14:18:45;12.80;;;4.00;;
19679;SDS011;9989;48.962;9.182;2022-07-19T14:21:10;9.33;;;4.90;;
19679;SDS011;9989;48.962;9.182;2022-07-19T14:23:36;7.87;;;4.50;;
19679;SDS011;9989;48.962;9.182;2022-07-19T14:26:02;11.87;;;5.77;;
19679;SDS011;9989;48.962;9.182;2022-07-19T14:28:28;12.10;;;4.77;;
19679;SDS011;9989;48.962;9.182;2022-07-19T14:30:53;12.43;;;5.33;;
19679;SDS011;9989;48.962;9.182;2022-07-19T14:33:19;11.73;;;5.30;;
19679;SDS011;9989;48.962;9.182;2022-07-19T14:35:45;9.93;;;4.80;;
19679;SDS011;9989;48.962;9.182;2022-07-19T14:38:10;8.83;;;4.57;;
19679;SDS011;9989;48.962;9.182;2022-07-19T14:40:36;15.47;;;5.27;;
19679;SDS011;9989;48.962;9.182;2022-07-19T14:43:03;12.87;;;4.93;;
19679;SDS011;9989;48.962;9.182;2022-07-19T14:45:29;11.20;;;5.10;;
19679;SDS011;9989;48.962;9.182;2022-07-19T14:47:55;11.67;;;4.70;;
19679;SDS011;9989;48.962;9.182;2022-07-19T14:50:20;12.17;;;4.47;;
19679;SDS011;9989;48.962;9.182;2022-07-19T14:52:46;7.03;;;4.00;;
19679;SDS011;9989;48.962;9.182;2022-07-19T14:55:12;10.00;;;4.43;;
19679;SDS011;9989;48.962;9.182;2022-07-19T14:57:38;10.40;;;4.60;;
19679;SDS011;9989;48.962;9.182;2022-07-19T15:00:06;10.33;;;5.17;;
19679;SDS011;9989;48.962;9.182;2022-07-19T15:02:32;12.23;;;5.30;;
19679;SDS011;9989;48.962;9.182;2022-07-19T15:04:58;8.90;;;5.00;;
19679;SDS011;9989;48.962;9.182;2022-07-19T15:07:24;7.87;;;4.30;;
19679;SDS011;9989;48.962;9.182;2022-07-19T15:09:51;13.77;;;4.57;;
19679;SDS011;9989;48.962;9.182;2022-07-19T15:12:17;7.97;;;4.37;;
19679;SDS011;9989;48.962;9.182;2022-07-19T15:14:43;9.43;;;4.10;;
19679;SDS011;9989;48.962;9.182;2022-07-19T15:17:08;10.03;;;4.57;;